sensor_id;sensor_type;location;lat;lon;timestamp;P1;durP1;ratioP1;P2;durP2;ratioP2
71320;SDS011;59118;54.322;18.576;2023-03-01T00:00:49;17.25;;;3.80;;
71320;SDS011;59118;54.322;18.576;2023-03-01T00:03:16;12.00;;;3.93;;
71320;SDS011;59118;54.322;18.576;2023-03-01T00:05:46;13.65;;;3.70;;
71320;SDS011;59118;54.322;18.576;2023-03-01T00:08:13;15.55;;;4.30;;
71320;SDS011;59118;54.322;18.576;2023-03-01T00:10:39;14.23;;;4.03;;
71320;SDS011;59118;54.322;18.576;2023-03-01T00:13:06;14.40;;;4.20;;
71320;SDS011;59118;54.322;18.576;2023-03-01T00:15:32;11.03;;;3.60;;
71320;SDS011;59118;54.322;18.576;2023-03-01T00:18:00;10.13;;;3.55;;
71320;SDS011;59118;54.322;18.576;2023-03-01T00:20:27;11.38;;;3.95;;
71320;SDS011;59118;54.322;18.576;2023-03-01T00:22:54;10.32;;;3.85;;
71320;SDS011;59118;54.322;18.576;2023-03-01T00:25:20;9.65;;;3.20;;
71320;SDS011;59118;54.322;18.576;2023-03-01T00:27:47;10.87;;;3.20;;
71320;SDS011;59118;54.322;18.576;2023-03-01T00:30:15;10.27;;;3.22;;
71320;SDS011;59118;54.322;18.576;2023-03-01T00:32:41;11.55;;;3.22;;
71320;SDS011;59118;54.322;18.576;2023-03-01T00:35:08;12.45;;;3.40;;
71320;SDS011;59118;54.322;18.576;2023-03-01T00:37:36;12.10;;;3.30;;
71320;SDS011;59118;54.322;18.576;2023-03-01T00:40:03;12.73;;;3.27;;
71320;SDS011;59118;54.322;18.576;2023-03-01T00:42:32;12.25;;;3.17;;
71320;SDS011;59118;54.322;18.576;2023-03-01T00:44:58;12.27;;;3.15;;
71320;SDS011;59118;54.322;18.576;2023-03-01T00:47:25;15.57;;;4.15;;
71320;SDS011;59118;54.322;18.576;2023-03-01T00:49:52;12.77;;;3.42;;
71320;SDS011;59118;54.322;18.576;2023-03-01T00:52:18;12.03;;;3.37;;
71320;SDS011;59118;54.322;18.576;2023-03-01T00:54:45;10.88;;;3.53;;
71320;SDS011;59118;54.322;18.576;2023-03-01T00:57:12;9.52;;;3.17;;
71320;SDS011;59118;54.322;18.576;2023-03-01T00:59:38;10.20;;;3.80;;
71320;SDS011;59118;54.322;18.576;2023-03-01T01:02:05;10.38;;;3.38;;
71320;SDS011;59118;54.322;18.576;2023-03-01T01:04:31;10.90;;;3.40;;
71320;SDS011;59118;54.322;18.576;2023-03-01T01:06:58;12.23;;;3.55;;
71320;SDS011;59118;54.322;18.576;2023-03-01T01:09:26;12.80;;;4.13;;
71320;SDS011;59118;54.322;18.576;2023-03-01T01:11:53;12.52;;;4.22;;
71320;SDS011;59118;54.322;18.576;2023-03-01T01:14:19;10.82;;;3.75;;
71320;SDS011;59118;54.322;18.576;2023-03-01T01:16:46;17.23;;;4.10;;
71320;SDS011;59118;54.322;18.576;2023-03-01T01:19:13;11.75;;;3.85;;
71320;SDS011;59118;54.322;18.576;2023-03-01T01:21:40;13.32;;;3.85;;
71320;SDS011;59118;54.322;18.576;2023-03-01T01:24:09;15.55;;;4.65;;
71320;SDS011;59118;54.322;18.576;2023-03-01T01:26:35;11.43;;;3.83;;
71320;SDS011;59118;54.322;18.576;2023-03-01T01:29:03;11.40;;;3.67;;
71320;SDS011;59118;54.322;18.576;2023-03-01T01:31:31;13.23;;;3.53;;
71320;SDS011;59118;54.322;18.576;2023-03-01T01:33:59;12.32;;;3.97;;
71320;SDS011;59118;54.322;18.576;2023-03-01T01:36:26;15.32;;;4.32;;
71320;SDS011;59118;54.322;18.576;2023-03-01T01:38:53;12.55;;;4.10;;
71320;SDS011;59118;54.322;18.576;2023-03-01T01:41:20;12.37;;;4.30;;
71320;SDS011;59118;54.322;18.576;2023-03-01T01:43:48;12.98;;;3.53;;
71320;SDS011;59118;54.322;18.576;2023-03-01T01:48:53;14.88;;;4.53;;
71320;SDS011;59118;54.322;18.576;2023-03-01T01:51:27;12.13;;;3.95;;
71320;SDS011;59118;54.322;18.576;2023-03-01T01:54:06;13.23;;;3.93;;
71320;SDS011;59118;54.322;18.576;2023-03-01T01:56:36;13.10;;;4.47;;
71320;SDS011;59118;54.322;18.576;2023-03-01T01:59:04;13.55;;;4.78;;
71320;SDS011;59118;54.322;18.576;2023-03-01T02:01:31;15.00;;;4.85;;
71320;SDS011;59118;54.322;18.576;2023-03-01T02:03:58;13.18;;;4.45;;
71320;SDS011;59118;54.322;18.576;2023-03-01T02:06:39;15.27;;;5.07;;
71320;SDS011;59118;54.322;18.576;2023-03-01T02:09:11;15.43;;;5.32;;
71320;SDS011;59118;54.322;18.576;2023-03-01T02:11:39;13.30;;;4.97;;
71320;SDS011;59118;54.322;18.576;2023-03-01T02:14:06;13.93;;;4.35;;
71320;SDS011;59118;54.322;18.576;2023-03-01T02:16:33;14.52;;;5.05;;
71320;SDS011;59118;54.322;18.576;2023-03-01T02:19:00;12.97;;;4.00;;
71320;SDS011;59118;54.322;18.576;2023-03-01T02:24:10;14.48;;;5.35;;
71320;SDS011;59118;54.322;18.576;2023-03-01T02:27:02;12.50;;;4.20;;
71320;SDS011;59118;54.322;18.576;2023-03-01T02:29:28;15.48;;;5.85;;
71320;SDS011;59118;54.322;18.576;2023-03-01T02:31:56;19.03;;;6.43;;
71320;SDS011;59118;54.322;18.576;2023-03-01T02:34:24;19.92;;;5.90;;
71320;SDS011;59118;54.322;18.576;2023-03-01T02:39:32;17.90;;;6.47;;
71320;SDS011;59118;54.322;18.576;2023-03-01T02:42:00;20.88;;;6.63;;
71320;SDS011;59118;54.322;18.576;2023-03-01T02:44:29;16.50;;;6.17;;
71320;SDS011;59118;54.322;18.576;2023-03-01T02:46:56;16.90;;;6.60;;
71320;SDS011;59118;54.322;18.576;2023-03-01T02:49:24;21.65;;;7.40;;
71320;SDS011;59118;54.322;18.576;2023-03-01T02:52:05;17.60;;;6.82;;
71320;SDS011;59118;54.322;18.576;2023-03-01T02:54:43;19.25;;;6.40;;
71320;SDS011;59118;54.322;18.576;2023-03-01T02:57:13;17.60;;;7.00;;
71320;SDS011;59118;54.322;18.576;2023-03-01T02:59:40;21.02;;;8.13;;
71320;SDS011;59118;54.322;18.576;2023-03-01T03:02:42;27.65;;;7.90;;
71320;SDS011;59118;54.322;18.576;2023-03-01T03:05:06;24.30;;;8.82;;
71320;SDS011;59118;54.322;18.576;2023-03-01T03:07:39;18.60;;;7.03;;
71320;SDS011;59118;54.322;18.576;2023-03-01T03:10:20;21.97;;;6.87;;
71320;SDS011;59118;54.322;18.576;2023-03-01T03:12:52;23.27;;;8.90;;
71320;SDS011;59118;54.322;18.576;2023-03-01T03:15:23;20.38;;;7.95;;
71320;SDS011;59118;54.322;18.576;2023-03-01T03:17:50;26.58;;;9.40;;
71320;SDS011;59118;54.322;18.576;2023-03-01T03:20:19;29.05;;;9.30;;
71320;SDS011;59118;54.322;18.576;2023-03-01T03:22:50;27.83;;;9.63;;
71320;SDS011;59118;54.322;18.576;2023-03-01T03:25:18;24.23;;;8.07;;
71320;SDS011;59118;54.322;18.576;2023-03-01T03:27:47;29.63;;;8.57;;
71320;SDS011;59118;54.322;18.576;2023-03-01T03:30:17;26.27;;;9.40;;
71320;SDS011;59118;54.322;18.576;2023-03-01T03:32:45;25.23;;;8.82;;
71320;SDS011;59118;54.322;18.576;2023-03-01T03:35:22;22.93;;;8.17;;
71320;SDS011;59118;54.322;18.576;2023-03-01T03:37:51;25.52;;;9.80;;
71320;SDS011;59118;54.322;18.576;2023-03-01T03:43:01;32.58;;;9.90;;
71320;SDS011;59118;54.322;18.576;2023-03-01T03:45:28;25.02;;;9.43;;
71320;SDS011;59118;54.322;18.576;2023-03-01T03:47:55;27.47;;;8.97;;
71320;SDS011;59118;54.322;18.576;2023-03-01T03:50:22;26.75;;;9.48;;
71320;SDS011;59118;54.322;18.576;2023-03-01T03:52:48;26.05;;;8.40;;
71320;SDS011;59118;54.322;18.576;2023-03-01T03:55:15;27.92;;;9.35;;
71320;SDS011;59118;54.322;18.576;2023-03-01T03:57:46;30.27;;;10.13;;
71320;SDS011;59118;54.322;18.576;2023-03-01T04:00:18;30.67;;;9.17;;
71320;SDS011;59118;54.322;18.576;2023-03-01T04:02:46;22.73;;;7.90;;
71320;SDS011;59118;54.322;18.576;2023-03-01T04:05:15;29.65;;;9.60;;
71320;SDS011;59118;54.322;18.576;2023-03-01T04:07:42;23.60;;;8.75;;
71320;SDS011;59118;54.322;18.576;2023-03-01T04:10:16;28.15;;;9.90;;
71320;SDS011;59118;54.322;18.576;2023-03-01T04:12:44;31.73;;;10.23;;
71320;SDS011;59118;54.322;18.576;2023-03-01T04:15:10;26.02;;;8.55;;
71320;SDS011;59118;54.322;18.576;2023-03-01T04:17:41;33.75;;;10.32;;
71320;SDS011;59118;54.322;18.576;2023-03-01T04:20:15;28.83;;;9.73;;
71320;SDS011;59118;54.322;18.576;2023-03-01T04:22:43;29.73;;;9.90;;
71320;SDS011;59118;54.322;18.576;2023-03-01T04:25:13;27.37;;;8.87;;
71320;SDS011;59118;54.322;18.576;2023-03-01T04:27:40;29.27;;;9.80;;
71320;SDS011;59118;54.322;18.576;2023-03-01T04:30:07;31.75;;;11.07;;
71320;SDS011;59118;54.322;18.576;2023-03-01T04:32:35;32.67;;;11.13;;
71320;SDS011;59118;54.322;18.576;2023-03-01T04:35:02;29.00;;;9.90;;
71320;SDS011;59118;54.322;18.576;2023-03-01T04:37:28;24.07;;;9.40;;
71320;SDS011;59118;54.322;18.576;2023-03-01T04:39:55;25.33;;;8.77;;
71320;SDS011;59118;54.322;18.576;2023-03-01T04:42:22;28.63;;;10.43;;
71320;SDS011;59118;54.322;18.576;2023-03-01T04:44:49;31.48;;;11.23;;
71320;SDS011;59118;54.322;18.576;2023-03-01T04:47:17;32.17;;;10.60;;
71320;SDS011;59118;54.322;18.576;2023-03-01T04:49:43;35.70;;;11.87;;
71320;SDS011;59118;54.322;18.576;2023-03-01T04:52:10;37.15;;;11.48;;
71320;SDS011;59118;54.322;18.576;2023-03-01T04:54:37;33.38;;;9.70;;
71320;SDS011;59118;54.322;18.576;2023-03-01T04:57:03;30.80;;;10.63;;
71320;SDS011;59118;54.322;18.576;2023-03-01T04:59:30;33.00;;;10.68;;
71320;SDS011;59118;54.322;18.576;2023-03-01T05:01:57;24.93;;;8.70;;
71320;SDS011;59118;54.322;18.576;2023-03-01T05:04:24;27.65;;;9.80;;
71320;SDS011;59118;54.322;18.576;2023-03-01T05:06:51;28.20;;;9.85;;
71320;SDS011;59118;54.322;18.576;2023-03-01T05:09:19;28.55;;;10.38;;
71320;SDS011;59118;54.322;18.576;2023-03-01T05:11:46;28.02;;;10.20;;
71320;SDS011;59118;54.322;18.576;2023-03-01T05:14:12;24.47;;;8.67;;
71320;SDS011;59118;54.322;18.576;2023-03-01T05:16:39;25.27;;;8.85;;
71320;SDS011;59118;54.322;18.576;2023-03-01T05:19:06;30.50;;;11.02;;
71320;SDS011;59118;54.322;18.576;2023-03-01T05:21:38;29.23;;;8.65;;
71320;SDS011;59118;54.322;18.576;2023-03-01T05:24:25;30.17;;;9.57;;
71320;SDS011;59118;54.322;18.576;2023-03-01T05:26:51;30.13;;;11.20;;
71320;SDS011;59118;54.322;18.576;2023-03-01T05:29:19;30.63;;;10.52;;
71320;SDS011;59118;54.322;18.576;2023-03-01T05:31:52;28.60;;;10.30;;
71320;SDS011;59118;54.322;18.576;2023-03-01T05:34:23;30.17;;;10.00;;
71320;SDS011;59118;54.322;18.576;2023-03-01T05:36:53;31.05;;;9.80;;
71320;SDS011;59118;54.322;18.576;2023-03-01T05:39:21;29.00;;;10.20;;
71320;SDS011;59118;54.322;18.576;2023-03-01T05:41:51;30.73;;;11.15;;
71320;SDS011;59118;54.322;18.576;2023-03-01T05:44:19;29.13;;;10.77;;
71320;SDS011;59118;54.322;18.576;2023-03-01T05:46:46;30.67;;;11.15;;
71320;SDS011;59118;54.322;18.576;2023-03-01T05:49:13;32.60;;;10.07;;
71320;SDS011;59118;54.322;18.576;2023-03-01T05:51:40;31.40;;;10.53;;
71320;SDS011;59118;54.322;18.576;2023-03-01T05:54:07;33.30;;;11.35;;
71320;SDS011;59118;54.322;18.576;2023-03-01T05:56:37;35.33;;;11.30;;
71320;SDS011;59118;54.322;18.576;2023-03-01T05:59:06;33.53;;;11.02;;
71320;SDS011;59118;54.322;18.576;2023-03-01T06:01:33;26.67;;;9.90;;
71320;SDS011;59118;54.322;18.576;2023-03-01T06:04:00;33.17;;;10.40;;
71320;SDS011;59118;54.322;18.576;2023-03-01T06:06:27;36.35;;;11.32;;
71320;SDS011;59118;54.322;18.576;2023-03-01T06:08:54;32.63;;;10.60;;
71320;SDS011;59118;54.322;18.576;2023-03-01T06:11:21;28.95;;;9.48;;
71320;SDS011;59118;54.322;18.576;2023-03-01T06:13:47;30.42;;;10.50;;
71320;SDS011;59118;54.322;18.576;2023-03-01T06:16:19;30.10;;;10.47;;
71320;SDS011;59118;54.322;18.576;2023-03-01T06:18:46;27.40;;;10.70;;
71320;SDS011;59118;54.322;18.576;2023-03-01T06:21:12;32.03;;;10.00;;
71320;SDS011;59118;54.322;18.576;2023-03-01T06:23:41;27.08;;;8.90;;
71320;SDS011;59118;54.322;18.576;2023-03-01T06:26:09;29.83;;;9.10;;
71320;SDS011;59118;54.322;18.576;2023-03-01T06:28:37;28.63;;;9.90;;
71320;SDS011;59118;54.322;18.576;2023-03-01T06:31:05;26.15;;;8.85;;
71320;SDS011;59118;54.322;18.576;2023-03-01T06:33:34;28.08;;;9.02;;
71320;SDS011;59118;54.322;18.576;2023-03-01T06:36:03;29.30;;;10.13;;
71320;SDS011;59118;54.322;18.576;2023-03-01T06:38:30;28.33;;;8.75;;
71320;SDS011;59118;54.322;18.576;2023-03-01T06:40:59;28.50;;;9.60;;
71320;SDS011;59118;54.322;18.576;2023-03-01T06:43:25;25.02;;;9.13;;
71320;SDS011;59118;54.322;18.576;2023-03-01T06:45:52;23.65;;;7.93;;
71320;SDS011;59118;54.322;18.576;2023-03-01T06:48:21;21.92;;;7.45;;
71320;SDS011;59118;54.322;18.576;2023-03-01T06:50:51;23.00;;;7.55;;
71320;SDS011;59118;54.322;18.576;2023-03-01T06:53:18;25.27;;;8.90;;
71320;SDS011;59118;54.322;18.576;2023-03-01T06:55:45;26.10;;;8.38;;
71320;SDS011;59118;54.322;18.576;2023-03-01T06:58:13;26.73;;;7.53;;
71320;SDS011;59118;54.322;18.576;2023-03-01T07:00:39;19.15;;;7.43;;
71320;SDS011;59118;54.322;18.576;2023-03-01T07:03:07;24.63;;;8.65;;
71320;SDS011;59118;54.322;18.576;2023-03-01T07:05:35;23.80;;;8.53;;
71320;SDS011;59118;54.322;18.576;2023-03-01T07:08:01;21.05;;;8.38;;
71320;SDS011;59118;54.322;18.576;2023-03-01T07:10:28;24.48;;;8.38;;
71320;SDS011;59118;54.322;18.576;2023-03-01T07:12:55;23.85;;;8.60;;
71320;SDS011;59118;54.322;18.576;2023-03-01T07:15:23;21.15;;;7.18;;
71320;SDS011;59118;54.322;18.576;2023-03-01T07:17:49;21.60;;;7.80;;
71320;SDS011;59118;54.322;18.576;2023-03-01T07:20:21;20.85;;;8.00;;
71320;SDS011;59118;54.322;18.576;2023-03-01T07:22:51;24.35;;;8.75;;
71320;SDS011;59118;54.322;18.576;2023-03-01T07:25:18;25.38;;;9.38;;
71320;SDS011;59118;54.322;18.576;2023-03-01T07:27:48;25.05;;;8.20;;
71320;SDS011;59118;54.322;18.576;2023-03-01T07:30:19;24.53;;;9.07;;
71320;SDS011;59118;54.322;18.576;2023-03-01T07:32:46;19.80;;;7.55;;
71320;SDS011;59118;54.322;18.576;2023-03-01T07:35:13;20.35;;;7.40;;
71320;SDS011;59118;54.322;18.576;2023-03-01T07:37:41;21.30;;;8.13;;
71320;SDS011;59118;54.322;18.576;2023-03-01T07:40:08;23.67;;;7.78;;
71320;SDS011;59118;54.322;18.576;2023-03-01T07:42:36;23.50;;;8.20;;
71320;SDS011;59118;54.322;18.576;2023-03-01T07:45:03;19.92;;;8.07;;
71320;SDS011;59118;54.322;18.576;2023-03-01T07:47:31;22.92;;;7.70;;
71320;SDS011;59118;54.322;18.576;2023-03-01T07:49:58;21.27;;;8.77;;
71320;SDS011;59118;54.322;18.576;2023-03-01T07:52:25;22.35;;;8.43;;
71320;SDS011;59118;54.322;18.576;2023-03-01T07:54:52;24.87;;;8.27;;
71320;SDS011;59118;54.322;18.576;2023-03-01T07:57:19;23.17;;;8.25;;
71320;SDS011;59118;54.322;18.576;2023-03-01T07:59:46;21.00;;;7.53;;
71320;SDS011;59118;54.322;18.576;2023-03-01T08:02:12;17.55;;;5.93;;
71320;SDS011;59118;54.322;18.576;2023-03-01T08:04:41;17.40;;;7.00;;
71320;SDS011;59118;54.322;18.576;2023-03-01T08:07:08;19.77;;;7.33;;
71320;SDS011;59118;54.322;18.576;2023-03-01T08:09:35;17.23;;;6.25;;
71320;SDS011;59118;54.322;18.576;2023-03-01T08:12:03;16.63;;;6.70;;
71320;SDS011;59118;54.322;18.576;2023-03-01T08:14:31;20.20;;;7.15;;
71320;SDS011;59118;54.322;18.576;2023-03-01T08:16:58;19.70;;;7.50;;
71320;SDS011;59118;54.322;18.576;2023-03-01T08:19:25;18.57;;;7.20;;
71320;SDS011;59118;54.322;18.576;2023-03-01T08:21:54;18.58;;;7.03;;
71320;SDS011;59118;54.322;18.576;2023-03-01T08:24:21;18.33;;;7.07;;
71320;SDS011;59118;54.322;18.576;2023-03-01T08:26:48;16.20;;;7.20;;
71320;SDS011;59118;54.322;18.576;2023-03-01T08:29:14;15.93;;;6.57;;
71320;SDS011;59118;54.322;18.576;2023-03-01T08:31:41;17.00;;;6.73;;
71320;SDS011;59118;54.322;18.576;2023-03-01T08:34:09;16.63;;;6.57;;
71320;SDS011;59118;54.322;18.576;2023-03-01T08:36:39;19.00;;;7.32;;
71320;SDS011;59118;54.322;18.576;2023-03-01T08:39:08;19.60;;;7.03;;
71320;SDS011;59118;54.322;18.576;2023-03-01T08:41:36;16.13;;;6.57;;
71320;SDS011;59118;54.322;18.576;2023-03-01T08:44:03;18.87;;;6.97;;
71320;SDS011;59118;54.322;18.576;2023-03-01T08:46:31;19.58;;;7.25;;
71320;SDS011;59118;54.322;18.576;2023-03-01T08:49:00;20.00;;;7.78;;
71320;SDS011;59118;54.322;18.576;2023-03-01T08:51:26;18.30;;;7.55;;
71320;SDS011;59118;54.322;18.576;2023-03-01T08:53:54;16.27;;;7.43;;
71320;SDS011;59118;54.322;18.576;2023-03-01T08:56:21;23.93;;;7.53;;
71320;SDS011;59118;54.322;18.576;2023-03-01T08:58:49;19.20;;;7.47;;
71320;SDS011;59118;54.322;18.576;2023-03-01T09:01:16;16.70;;;7.07;;
71320;SDS011;59118;54.322;18.576;2023-03-01T09:03:44;19.10;;;7.15;;
71320;SDS011;59118;54.322;18.576;2023-03-01T09:06:12;15.68;;;6.80;;
71320;SDS011;59118;54.322;18.576;2023-03-01T09:08:41;16.40;;;5.83;;
71320;SDS011;59118;54.322;18.576;2023-03-01T09:11:10;14.23;;;5.85;;
71320;SDS011;59118;54.322;18.576;2023-03-01T09:13:38;17.05;;;6.40;;
71320;SDS011;59118;54.322;18.576;2023-03-01T09:16:07;19.00;;;7.05;;
71320;SDS011;59118;54.322;18.576;2023-03-01T09:18:34;15.70;;;6.38;;
71320;SDS011;59118;54.322;18.576;2023-03-01T09:21:06;14.93;;;6.10;;
71320;SDS011;59118;54.322;18.576;2023-03-01T09:23:35;16.92;;;6.22;;
71320;SDS011;59118;54.322;18.576;2023-03-01T09:26:07;15.23;;;6.07;;
71320;SDS011;59118;54.322;18.576;2023-03-01T09:28:35;16.52;;;6.25;;
71320;SDS011;59118;54.322;18.576;2023-03-01T09:31:04;16.60;;;6.18;;
71320;SDS011;59118;54.322;18.576;2023-03-01T09:33:31;15.53;;;6.57;;
71320;SDS011;59118;54.322;18.576;2023-03-01T09:35:59;13.48;;;5.72;;
71320;SDS011;59118;54.322;18.576;2023-03-01T09:38:28;16.88;;;6.45;;
71320;SDS011;59118;54.322;18.576;2023-03-01T09:40:54;14.02;;;6.22;;
71320;SDS011;59118;54.322;18.576;2023-03-01T09:46:05;15.23;;;6.50;;
71320;SDS011;59118;54.322;18.576;2023-03-01T09:49:09;15.93;;;6.35;;
71320;SDS011;59118;54.322;18.576;2023-03-01T09:51:35;17.65;;;6.60;;
71320;SDS011;59118;54.322;18.576;2023-03-01T09:54:02;13.20;;;5.93;;
71320;SDS011;59118;54.322;18.576;2023-03-01T10:04:57;13.80;;;6.03;;
71320;SDS011;59118;54.322;18.576;2023-03-01T10:08:21;16.13;;;6.25;;
71320;SDS011;59118;54.322;18.576;2023-03-01T10:10:36;16.10;;;6.47;;
71320;SDS011;59118;54.322;18.576;2023-03-01T10:13:13;19.30;;;7.10;;
71320;SDS011;59118;54.322;18.576;2023-03-01T10:15:44;17.25;;;7.20;;
71320;SDS011;59118;54.322;18.576;2023-03-01T10:18:17;15.52;;;6.68;;
71320;SDS011;59118;54.322;18.576;2023-03-01T10:20:52;13.57;;;6.05;;
71320;SDS011;59118;54.322;18.576;2023-03-01T10:23:19;15.57;;;6.50;;
71320;SDS011;59118;54.322;18.576;2023-03-01T10:25:57;15.60;;;6.77;;
71320;SDS011;59118;54.322;18.576;2023-03-01T10:28:39;15.32;;;6.45;;
71320;SDS011;59118;54.322;18.576;2023-03-01T10:31:45;12.93;;;6.10;;
71320;SDS011;59118;54.322;18.576;2023-03-01T10:34:16;15.23;;;6.53;;
71320;SDS011;59118;54.322;18.576;2023-03-01T10:36:47;14.32;;;6.22;;
71320;SDS011;59118;54.322;18.576;2023-03-01T10:39:19;14.80;;;6.77;;
71320;SDS011;59118;54.322;18.576;2023-03-01T10:41:55;12.27;;;5.95;;
71320;SDS011;59118;54.322;18.576;2023-03-01T10:44:35;13.68;;;6.07;;
71320;SDS011;59118;54.322;18.576;2023-03-01T10:50:00;14.40;;;6.75;;
71320;SDS011;59118;54.322;18.576;2023-03-01T10:52:31;15.07;;;6.60;;
71320;SDS011;59118;54.322;18.576;2023-03-01T10:55:01;15.48;;;7.28;;
71320;SDS011;59118;54.322;18.576;2023-03-01T10:57:31;16.33;;;7.07;;
71320;SDS011;59118;54.322;18.576;2023-03-01T11:00:23;16.10;;;7.22;;
71320;SDS011;59118;54.322;18.576;2023-03-01T11:03:02;16.52;;;7.13;;
71320;SDS011;59118;54.322;18.576;2023-03-01T11:05:53;17.57;;;7.37;;
71320;SDS011;59118;54.322;18.576;2023-03-01T11:08:44;15.50;;;6.88;;
71320;SDS011;59118;54.322;18.576;2023-03-01T11:13:46;17.33;;;7.28;;
71320;SDS011;59118;54.322;18.576;2023-03-01T11:16:22;15.27;;;7.15;;
71320;SDS011;59118;54.322;18.576;2023-03-01T11:19:03;16.13;;;6.83;;
71320;SDS011;59118;54.322;18.576;2023-03-01T11:21:30;13.23;;;6.38;;
71320;SDS011;59118;54.322;18.576;2023-03-01T11:24:00;13.75;;;6.13;;
71320;SDS011;59118;54.322;18.576;2023-03-01T11:26:28;16.67;;;7.10;;
71320;SDS011;59118;54.322;18.576;2023-03-01T11:28:56;15.43;;;6.20;;
71320;SDS011;59118;54.322;18.576;2023-03-01T11:31:25;17.67;;;7.17;;
71320;SDS011;59118;54.322;18.576;2023-03-01T11:33:58;16.17;;;6.95;;
71320;SDS011;59118;54.322;18.576;2023-03-01T11:36:30;16.00;;;7.05;;
71320;SDS011;59118;54.322;18.576;2023-03-01T11:39:03;17.02;;;7.60;;
71320;SDS011;59118;54.322;18.576;2023-03-01T11:41:39;17.20;;;7.22;;
71320;SDS011;59118;54.322;18.576;2023-03-01T11:44:16;16.97;;;7.73;;
71320;SDS011;59118;54.322;18.576;2023-03-01T11:57:28;18.87;;;7.90;;
71320;SDS011;59118;54.322;18.576;2023-03-01T12:08:40;16.90;;;7.43;;
71320;SDS011;59118;54.322;18.576;2023-03-01T12:13:59;19.95;;;9.05;;
71320;SDS011;59118;54.322;18.576;2023-03-01T12:31:05;22.63;;;8.65;;
71320;SDS011;59118;54.322;18.576;2023-03-01T12:39:24;18.07;;;7.37;;
71320;SDS011;59118;54.322;18.576;2023-03-01T12:42:13;20.35;;;8.18;;
71320;SDS011;59118;54.322;18.576;2023-03-01T12:44:58;17.77;;;8.20;;
71320;SDS011;59118;54.322;18.576;2023-03-01T12:50:20;19.50;;;8.95;;
71320;SDS011;59118;54.322;18.576;2023-03-01T12:53:00;20.00;;;8.63;;
71320;SDS011;59118;54.322;18.576;2023-03-01T13:00:34;21.70;;;9.65;;
71320;SDS011;59118;54.322;18.576;2023-03-01T13:03:11;20.17;;;9.30;;
71320;SDS011;59118;54.322;18.576;2023-03-01T13:06:19;21.23;;;9.67;;
71320;SDS011;59118;54.322;18.576;2023-03-01T13:11:49;19.88;;;9.00;;
71320;SDS011;59118;54.322;18.576;2023-03-01T13:16:52;20.98;;;9.38;;
71320;SDS011;59118;54.322;18.576;2023-03-01T13:19:25;17.30;;;8.23;;
71320;SDS011;59118;54.322;18.576;2023-03-01T13:21:55;20.08;;;9.10;;
71320;SDS011;59118;54.322;18.576;2023-03-01T13:24:33;19.63;;;8.43;;
71320;SDS011;59118;54.322;18.576;2023-03-01T13:32:10;18.57;;;8.07;;
71320;SDS011;59118;54.322;18.576;2023-03-01T13:34:48;18.63;;;7.68;;
71320;SDS011;59118;54.322;18.576;2023-03-01T13:37:40;18.63;;;8.25;;
71320;SDS011;59118;54.322;18.576;2023-03-01T13:40:56;18.98;;;8.15;;
71320;SDS011;59118;54.322;18.576;2023-03-01T13:42:54;20.05;;;8.50;;
71320;SDS011;59118;54.322;18.576;2023-03-01T13:45:41;17.03;;;7.57;;
71320;SDS011;59118;54.322;18.576;2023-03-01T13:48:16;18.02;;;7.68;;
71320;SDS011;59118;54.322;18.576;2023-03-01T13:50:50;17.13;;;7.65;;
71320;SDS011;59118;54.322;18.576;2023-03-01T13:53:20;16.65;;;7.80;;
71320;SDS011;59118;54.322;18.576;2023-03-01T13:55:51;19.95;;;7.35;;
71320;SDS011;59118;54.322;18.576;2023-03-01T13:58:22;17.00;;;7.70;;
71320;SDS011;59118;54.322;18.576;2023-03-01T14:01:00;18.88;;;7.68;;
71320;SDS011;59118;54.322;18.576;2023-03-01T14:03:29;17.08;;;8.02;;
71320;SDS011;59118;54.322;18.576;2023-03-01T14:06:01;18.45;;;7.95;;
71320;SDS011;59118;54.322;18.576;2023-03-01T14:08:41;17.67;;;7.90;;
71320;SDS011;59118;54.322;18.576;2023-03-01T14:19:45;20.25;;;8.25;;
71320;SDS011;59118;54.322;18.576;2023-03-01T14:24:49;18.33;;;8.23;;
71320;SDS011;59118;54.322;18.576;2023-03-01T14:27:18;18.27;;;8.93;;
71320;SDS011;59118;54.322;18.576;2023-03-01T14:29:53;23.90;;;8.77;;
71320;SDS011;59118;54.322;18.576;2023-03-01T14:32:24;18.50;;;7.90;;
71320;SDS011;59118;54.322;18.576;2023-03-01T14:34:52;19.45;;;8.65;;
71320;SDS011;59118;54.322;18.576;2023-03-01T14:39:53;19.25;;;8.05;;
71320;SDS011;59118;54.322;18.576;2023-03-01T14:42:21;18.90;;;8.25;;
71320;SDS011;59118;54.322;18.576;2023-03-01T14:44:50;17.73;;;8.07;;
71320;SDS011;59118;54.322;18.576;2023-03-01T14:47:28;16.63;;;7.97;;
71320;SDS011;59118;54.322;18.576;2023-03-01T14:49:59;17.97;;;7.27;;
71320;SDS011;59118;54.322;18.576;2023-03-01T14:52:41;18.13;;;7.30;;
71320;SDS011;59118;54.322;18.576;2023-03-01T14:55:18;14.95;;;7.05;;
71320;SDS011;59118;54.322;18.576;2023-03-01T14:57:47;17.77;;;7.40;;
71320;SDS011;59118;54.322;18.576;2023-03-01T15:00:17;16.02;;;6.75;;
71320;SDS011;59118;54.322;18.576;2023-03-01T15:02:50;17.97;;;7.63;;
71320;SDS011;59118;54.322;18.576;2023-03-01T15:05:22;17.25;;;7.32;;
71320;SDS011;59118;54.322;18.576;2023-03-01T15:08:00;17.83;;;7.50;;
71320;SDS011;59118;54.322;18.576;2023-03-01T15:10:32;16.95;;;7.45;;
71320;SDS011;59118;54.322;18.576;2023-03-01T15:13:10;20.83;;;8.35;;
71320;SDS011;59118;54.322;18.576;2023-03-01T15:15:46;15.90;;;7.30;;
71320;SDS011;59118;54.322;18.576;2023-03-01T15:18:15;20.67;;;7.68;;
71320;SDS011;59118;54.322;18.576;2023-03-01T15:20:49;18.60;;;7.15;;
71320;SDS011;59118;54.322;18.576;2023-03-01T15:23:21;15.50;;;7.28;;
71320;SDS011;59118;54.322;18.576;2023-03-01T15:25:55;17.92;;;7.07;;
71320;SDS011;59118;54.322;18.576;2023-03-01T15:28:30;17.13;;;7.53;;
71320;SDS011;59118;54.322;18.576;2023-03-01T15:33:41;16.50;;;7.85;;
71320;SDS011;59118;54.322;18.576;2023-03-01T15:39:04;20.50;;;7.50;;
71320;SDS011;59118;54.322;18.576;2023-03-01T15:41:48;17.07;;;7.67;;
71320;SDS011;59118;54.322;18.576;2023-03-01T15:44:15;18.23;;;8.13;;
71320;SDS011;59118;54.322;18.576;2023-03-01T15:47:21;19.48;;;7.78;;
71320;SDS011;59118;54.322;18.576;2023-03-01T15:49:50;21.00;;;8.57;;
71320;SDS011;59118;54.322;18.576;2023-03-01T15:52:22;20.15;;;8.68;;
71320;SDS011;59118;54.322;18.576;2023-03-01T15:55:03;19.60;;;8.50;;
71320;SDS011;59118;54.322;18.576;2023-03-01T15:57:32;19.90;;;8.57;;
71320;SDS011;59118;54.322;18.576;2023-03-01T15:59:58;18.42;;;7.63;;
71320;SDS011;59118;54.322;18.576;2023-03-01T16:02:25;21.25;;;7.93;;
71320;SDS011;59118;54.322;18.576;2023-03-01T16:04:53;23.50;;;8.43;;
71320;SDS011;59118;54.322;18.576;2023-03-01T16:07:20;19.20;;;8.30;;
71320;SDS011;59118;54.322;18.576;2023-03-01T16:09:46;19.58;;;8.00;;
71320;SDS011;59118;54.322;18.576;2023-03-01T16:12:17;15.57;;;7.75;;
71320;SDS011;59118;54.322;18.576;2023-03-01T16:14:48;17.35;;;7.80;;
71320;SDS011;59118;54.322;18.576;2023-03-01T16:17:20;20.05;;;9.10;;
71320;SDS011;59118;54.322;18.576;2023-03-01T16:19:47;16.00;;;7.30;;
71320;SDS011;59118;54.322;18.576;2023-03-01T16:22:13;23.10;;;9.20;;
71320;SDS011;59118;54.322;18.576;2023-03-01T16:24:40;24.42;;;9.77;;
71320;SDS011;59118;54.322;18.576;2023-03-01T16:27:08;29.67;;;11.65;;